Time;durP1;ratioP1;P1;durP2;ratioP2;P2;SDS_P1;SDS_P2;PMS_P1;PMS_P2;Temp;Humidity;BMP_temperature;BMP_pressure;BME280_temperature;BME280_humidity;BME280_pressure;Samples;Min_cycle;Max_cycle;Signal;HPM_P1;HPM_P2
2021/03/04 00:02:06;;;;;;;21.50;18.02;;;23.60;35.60;;;;;;5031093;28;20033;-58
2021/03/04 00:04:32;;;;;;;19.25;16.80;;;23.60;35.60;;;;;;5032304;28;20129;-56
2021/03/04 00:06:58;;;;;;;20.23;16.90;;;23.60;35.60;;;;;;5028444;28;20460;-53
2021/03/04 00:09:24;;;;;;;18.77;16.58;;;23.60;35.60;;;;;;5032280;28;20045;-57
2021/03/04 00:11:50;;;;;;;18.55;16.17;;;23.50;35.50;;;;;;5032026;28;20033;-57
2021/03/04 00:14:15;;;;;;;20.50;16.70;;;23.50;35.50;;;;;;5032176;28;20044;-56
2021/03/04 00:16:41;;;;;;;19.25;15.80;;;23.50;35.60;;;;;;5033581;28;20036;-56
2021/03/04 00:19:07;;;;;;;19.73;16.15;;;23.50;35.60;;;;;;5032650;28;20378;-56
2021/03/04 00:21:33;;;;;;;19.83;16.27;;;23.50;35.60;;;;;;5032276;28;20337;-54
2021/03/04 00:23:58;;;;;;;18.98;15.43;;;23.50;35.60;;;;;;5032926;28;20029;-56
2021/03/04 00:26:24;;;;;;;17.23;15.23;;;23.50;35.60;;;;;;5033215;28;20045;-55
2021/03/04 00:28:50;;;;;;;18.13;14.43;;;23.50;35.60;;;;;;5035909;28;20040;-58
2021/03/04 00:31:16;;;;;;;17.58;15.52;;;23.50;35.60;;;;;;5034517;28;20045;-54
2021/03/04 00:33:41;;;;;;;17.38;15.07;;;23.50;35.60;;;;;;5033916;28;20033;-56
2021/03/04 00:36:07;;;;;;;17.38;14.50;;;23.40;35.60;;;;;;5034385;28;20030;-53
2021/03/04 00:38:33;;;;;;;15.60;13.40;;;23.50;35.60;;;;;;5035519;28;20026;-57
2021/03/04 00:40:59;;;;;;;16.65;14.05;;;23.40;35.50;;;;;;5031670;28;20104;-53
2021/03/04 00:43:25;;;;;;;17.92;14.38;;;23.50;35.60;;;;;;5035998;28;20064;-59
2021/03/04 00:45:51;;;;;;;15.75;13.52;;;23.40;35.50;;;;;;5035246;28;20073;-56
2021/03/04 00:48:17;;;;;;;15.45;12.73;;;23.40;35.50;;;;;;5036453;28;20107;-56
2021/03/04 00:50:43;;;;;;;15.48;13.18;;;23.40;35.50;;;;;;5032085;28;20037;-61
2021/03/04 00:53:08;;;;;;;17.33;14.38;;;23.40;35.50;;;;;;5035470;28;20029;-54
2021/03/04 00:55:34;;;;;;;17.23;13.57;;;23.40;35.50;;;;;;5034619;28;20056;-56
2021/03/04 00:58:00;;;;;;;17.02;14.20;;;23.40;35.60;;;;;;5035887;28;20021;-55
2021/03/04 01:00:26;;;;;;;15.05;13.38;;;23.40;35.60;;;;;;5033703;28;20342;-56
2021/03/04 01:02:52;;;;;;;16.60;13.07;;;23.40;35.50;;;;;;5036064;28;20476;-58
2021/03/04 01:05:19;;;;;;;15.68;12.70;;;23.40;35.50;;;;;;5034027;28;20038;-56
2021/03/04 01:07:44;;;;;;;14.40;12.85;;;23.40;35.50;;;;;;5031092;28;20068;-55
2021/03/04 01:10:13;;;;;;;17.05;12.95;;;23.30;35.40;;;;;;5032824;28;20069;-55
2021/03/04 01:12:40;;;;;;;16.70;13.45;;;23.30;35.50;;;;;;5033558;28;20109;-55
2021/03/04 01:15:15;;;;;;;15.90;13.13;;;23.30;35.50;;;;;;5035374;28;20107;-55
2021/03/04 01:17:41;;;;;;;13.85;12.18;;;23.30;35.50;;;;;;5035024;28;20022;-58
2021/03/04 01:20:12;;;;;;;13.95;12.30;;;23.30;35.50;;;;;;5034501;28;20318;-50
2021/03/04 01:22:38;;;;;;;15.20;12.43;;;23.30;35.50;;;;;;5033730;28;20041;-57
2021/03/04 01:25:04;;;;;;;14.52;11.77;;;23.30;35.50;;;;;;5033180;28;20030;-56
2021/03/04 01:27:33;;;;;;;13.48;12.00;;;23.30;35.50;;;;;;5034763;28;20030;-53
2021/03/04 01:29:59;;;;;;;14.57;12.07;;;23.30;35.50;;;;;;5035020;28;20068;-58
2021/03/04 01:32:24;;;;;;;13.48;11.35;;;23.30;35.50;;;;;;5031912;28;20053;-58
2021/03/04 01:34:50;;;;;;;13.77;11.98;;;23.30;35.50;;;;;;5031350;28;20397;-59
2021/03/04 01:37:16;;;;;;;14.57;12.10;;;23.30;35.50;;;;;;5034978;28;20032;-58
2021/03/04 01:39:42;;;;;;;14.07;12.00;;;23.30;35.50;;;;;;5033227;28;20037;-56
2021/03/04 01:42:08;;;;;;;13.73;11.52;;;23.20;35.50;;;;;;5033243;28;20332;-59
2021/03/04 01:44:34;;;;;;;12.98;11.23;;;23.30;35.60;;;;;;5034217;28;20033;-54
2021/03/04 01:47:01;;;;;;;12.80;10.57;;;23.20;35.50;;;;;;5033636;28;20029;-56
2021/03/04 01:49:27;;;;;;;13.23;11.20;;;23.30;35.60;;;;;;5029535;28;20033;-58
2021/03/04 01:51:53;;;;;;;14.00;12.07;;;23.20;35.50;;;;;;5034997;28;20026;-54
2021/03/04 01:54:18;;;;;;;13.10;11.57;;;23.20;35.50;;;;;;5033586;28;20480;-55
2021/03/04 01:56:46;;;;;;;13.15;10.32;;;23.20;35.50;;;;;;5034922;28;20060;-54
2021/03/04 01:59:12;;;;;;;14.07;11.20;;;23.20;35.60;;;;;;5030754;28;20029;-55
2021/03/04 02:01:38;;;;;;;13.32;11.10;;;23.20;35.50;;;;;;5034242;28;20334;-54
2021/03/04 02:04:05;;;;;;;12.07;10.07;;;23.20;35.50;;;;;;5028934;28;20026;-58
2021/03/04 02:06:50;;;;;;;11.82;10.02;;;23.20;35.50;;;;;;5034708;28;20061;-57
2021/03/04 02:09:20;;;;;;;12.15;10.60;;;23.20;35.50;;;;;;5031686;28;20420;-59
2021/03/04 02:11:52;;;;;;;12.93;11.10;;;23.20;35.50;;;;;;5030876;28;20090;-59
2021/03/04 02:14:27;;;;;;;11.45;10.00;;;23.10;35.50;;;;;;5045765;28;20400;-55
2021/03/04 02:16:59;;;;;;;12.25;10.45;;;23.10;35.50;;;;;;5034543;28;20037;-55
2021/03/04 02:19:27;;;;;;;12.80;10.85;;;23.10;35.50;;;;;;5031139;28;20033;-53
2021/03/04 02:22:18;;;;;;;12.13;10.65;;;23.10;35.40;;;;;;5034465;28;20053;-57
2021/03/04 02:25:18;;;;;;;11.60;9.50;;;23.10;35.40;;;;;;5032178;28;20045;-58
2021/03/04 02:27:46;;;;;;;10.50;9.40;;;23.10;35.40;;;;;;5015210;28;20042;-56
2021/03/04 02:30:22;;;;;;;10.25;9.18;;;23.10;35.50;;;;;;5030516;28;20025;-58
2021/03/04 02:32:52;;;;;;;10.90;9.45;;;23.10;35.50;;;;;;5033107;28;20041;-58
2021/03/04 02:35:29;;;;;;;13.00;10.02;;;23.10;35.50;;;;;;5034167;28;20045;-57
2021/03/04 02:38:05;;;;;;;11.13;9.90;;;23.10;35.50;;;;;;5032982;28;20037;-59
2021/03/04 02:40:32;;;;;;;12.35;9.23;;;23.10;35.60;;;;;;5032684;28;20034;-55
2021/03/04 02:43:00;;;;;;;10.68;8.95;;;23.10;35.50;;;;;;5032701;28;20032;-58
2021/03/04 02:45:26;;;;;;;9.88;8.77;;;23.10;35.60;;;;;;5031731;28;20141;-54
2021/03/04 02:47:53;;;;;;;9.90;8.75;;;23.10;35.50;;;;;;5031592;28;20029;-56
2021/03/04 02:50:20;;;;;;;10.80;9.10;;;23.10;35.50;;;;;;5032653;28;20112;-58
2021/03/04 02:52:48;;;;;;;11.43;9.30;;;23.10;35.50;;;;;;5031854;28;20064;-58
2021/03/04 02:55:14;;;;;;;11.18;8.68;;;23.00;35.40;;;;;;5032639;28;20103;-56
2021/03/04 02:57:43;;;;;;;10.40;8.82;;;23.00;35.50;;;;;;5033258;28;20030;-56
2021/03/04 03:00:13;;;;;;;10.38;8.65;;;23.00;35.50;;;;;;5029857;28;20449;-57
2021/03/04 03:02:41;;;;;;;9.63;8.27;;;23.00;35.50;;;;;;5034263;28;20116;-57
2021/03/04 03:05:10;;;;;;;10.80;8.40;;;23.00;35.50;;;;;;5034652;28;20064;-54
2021/03/04 03:07:38;;;;;;;10.98;9.23;;;23.00;35.50;;;;;;5030928;28;20455;-56
2021/03/04 03:10:05;;;;;;;9.65;8.10;;;23.00;35.50;;;;;;5023887;28;20090;-54
2021/03/04 03:12:33;;;;;;;9.35;8.23;;;23.00;35.50;;;;;;5017201;28;20041;-56
2021/03/04 03:15:05;;;;;;;9.70;8.10;;;23.00;36.10;;;;;;5024095;28;20029;-57
2021/03/04 03:17:31;;;;;;;10.50;7.85;;;23.00;35.50;;;;;;5025141;28;20104;-48
2021/03/04 03:19:57;;;;;;;10.10;8.48;;;23.00;35.50;;;;;;5035350;28;20120;-49
2021/03/04 03:22:23;;;;;;;8.57;7.50;;;23.00;35.50;;;;;;5034651;28;20368;-53
2021/03/04 03:24:49;;;;;;;9.77;8.45;;;23.00;35.50;;;;;;5027721;28;20041;-52
2021/03/04 03:27:14;;;;;;;9.70;7.57;;;22.90;35.40;;;;;;5029430;28;20025;-47
2021/03/04 03:29:41;;;;;;;9.55;8.27;;;22.90;35.40;;;;;;5034336;28;20035;-47
2021/03/04 03:32:08;;;;;;;10.13;7.93;;;23.00;35.50;;;;;;5033235;28;20120;-56
2021/03/04 03:34:34;;;;;;;10.00;7.70;;;22.90;35.40;;;;;;5033035;28;20404;-58
2021/03/04 03:37:00;;;;;;;10.05;8.18;;;22.90;35.40;;;;;;5034091;28;20029;-56
2021/03/04 03:39:26;;;;;;;8.27;7.40;;;22.90;35.40;;;;;;5034014;28;20029;-58
2021/03/04 03:41:54;;;;;;;9.40;7.40;;;22.90;35.30;;;;;;5031087;28;20037;-57
2021/03/04 03:44:20;;;;;;;10.43;8.00;;;22.90;35.30;;;;;;5021720;28;20315;-50
2021/03/04 03:46:49;;;;;;;8.90;7.20;;;22.90;35.30;;;;;;5021092;28;20052;-51
2021/03/04 03:49:16;;;;;;;8.32;6.70;;;22.90;35.30;;;;;;5035526;28;20034;-53
2021/03/04 03:51:43;;;;;;;9.27;7.53;;;22.90;35.30;;;;;;5025722;28;20021;-51
2021/03/04 03:54:10;;;;;;;8.48;7.35;;;22.90;35.30;;;;;;5034725;28;20112;-49
2021/03/04 03:56:36;;;;;;;9.05;7.57;;;22.90;35.30;;;;;;5034660;28;20042;-49
2021/03/04 03:59:05;;;;;;;7.45;6.60;;;22.90;35.30;;;;;;5032969;28;20045;-59
2021/03/04 04:01:34;;;;;;;7.47;6.45;;;22.90;35.30;;;;;;5034068;28;20030;-58
2021/03/04 04:04:01;;;;;;;8.80;7.55;;;22.90;35.30;;;;;;5027640;28;20033;-60
2021/03/04 04:06:31;;;;;;;8.70;6.97;;;22.90;35.30;;;;;;5022909;28;20056;-56
2021/03/04 04:08:58;;;;;;;7.47;6.68;;;22.90;35.20;;;;;;5029581;28;20124;-61
2021/03/04 04:11:29;;;;;;;7.50;6.63;;;22.80;35.20;;;;;;5033733;28;20040;-56
2021/03/04 04:13:56;;;;;;;9.45;7.55;;;22.80;35.20;;;;;;5033422;28;20130;-57
2021/03/04 04:16:24;;;;;;;8.55;6.97;;;22.80;35.20;;;;;;5034014;28;20156;-55
2021/03/04 04:18:51;;;;;;;7.05;6.28;;;22.80;35.30;;;;;;5032096;28;20402;-54
2021/03/04 04:21:18;;;;;;;6.75;5.80;;;22.80;35.30;;;;;;5018678;28;20117;-59
2021/03/04 04:23:45;;;;;;;7.63;6.20;;;22.80;35.30;;;;;;5031599;28;20427;-55
2021/03/04 04:26:11;;;;;;;7.55;6.43;;;22.80;35.20;;;;;;5034199;28;20045;-53
2021/03/04 04:28:37;;;;;;;7.75;6.35;;;22.80;35.20;;;;;;5029297;28;20030;-55
2021/03/04 04:31:03;;;;;;;8.57;7.07;;;22.80;35.20;;;;;;5024024;28;20021;-57
2021/03/04 04:33:29;;;;;;;8.75;6.57;;;22.80;35.20;;;;;;5032178;28;20464;-57
2021/03/04 04:35:55;;;;;;;7.57;6.50;;;22.80;35.20;;;;;;5026300;28;20030;-57
2021/03/04 04:38:21;;;;;;;7.28;6.35;;;22.80;35.20;;;;;;5033042;28;20061;-57
2021/03/04 04:40:47;;;;;;;6.90;6.20;;;22.80;35.20;;;;;;5033139;28;20034;-54
2021/03/04 04:43:12;;;;;;;6.72;5.85;;;22.80;35.20;;;;;;5033858;28;20044;-59
2021/03/04 04:45:38;;;;;;;7.43;5.90;;;22.80;35.20;;;;;;5030985;28;20068;-58
2021/03/04 04:48:05;;;;;;;7.47;5.93;;;22.70;35.20;;;;;;5026435;28;20033;-55
2021/03/04 04:50:31;;;;;;;7.97;5.88;;;22.70;35.20;;;;;;5022250;28;20034;-57
2021/03/04 04:52:57;;;;;;;7.00;5.90;;;22.70;35.80;;;;;;5033575;28;20040;-56
2021/03/04 04:55:23;;;;;;;7.25;5.85;;;22.70;35.20;;;;;;5020698;28;20041;-56
2021/03/04 04:57:48;;;;;;;6.82;5.55;;;22.70;35.10;;;;;;5028213;28;20455;-59
2021/03/04 05:00:15;;;;;;;6.57;5.47;;;22.70;35.10;;;;;;5033329;28;20054;-55
2021/03/04 05:02:41;;;;;;;6.68;5.63;;;22.70;35.20;;;;;;5034122;28;20392;-50
2021/03/04 05:05:08;;;;;;;6.15;5.40;;;22.70;35.20;;;;;;5024088;28;20037;-50
2021/03/04 05:07:35;;;;;;;5.97;5.10;;;22.70;35.20;;;;;;5014399;28;20462;-57
2021/03/04 05:10:04;;;;;;;5.18;4.68;;;22.70;35.20;;;;;;5021486;28;20394;-59
2021/03/04 05:12:30;;;;;;;7.38;5.55;;;22.70;35.20;;;;;;5029101;28;20033;-55
2021/03/04 05:14:56;;;;;;;6.43;5.28;;;22.70;35.10;;;;;;5036253;28;20033;-57
2021/03/04 05:17:21;;;;;;;7.13;5.93;;;22.70;35.10;;;;;;5036987;28;20151;-56
2021/03/04 05:19:47;;;;;;;6.43;5.00;;;22.70;35.10;;;;;;5029124;28;20026;-57
2021/03/04 05:22:13;;;;;;;7.32;5.88;;;22.70;35.10;;;;;;5037177;28;20030;-54
2021/03/04 05:24:39;;;;;;;5.57;4.97;;;22.60;35.10;;;;;;5032129;28;20033;-59
2021/03/04 05:27:05;;;;;;;5.97;4.90;;;22.70;35.20;;;;;;5035265;28;20110;-55
2021/03/04 05:29:31;;;;;;;5.40;4.72;;;22.60;35.10;;;;;;5027910;28;20034;-56
2021/03/04 05:31:57;;;;;;;5.82;5.13;;;22.60;35.10;;;;;;5036858;28;20037;-59
2021/03/04 05:34:22;;;;;;;5.60;5.00;;;22.60;35.10;;;;;;5030361;28;20067;-60
2021/03/04 05:36:49;;;;;;;5.97;4.90;;;22.60;35.10;;;;;;5029264;28;20127;-59
2021/03/04 05:39:14;;;;;;;6.53;5.50;;;22.60;35.10;;;;;;5029966;28;20021;-57
2021/03/04 05:41:41;;;;;;;6.20;4.90;;;22.60;35.10;;;;;;5035687;28;20040;-52
2021/03/04 05:44:07;;;;;;;5.07;4.57;;;22.60;35.10;;;;;;5030628;28;20057;-55
2021/03/04 05:46:34;;;;;;;5.57;4.88;;;22.60;35.10;;;;;;5032252;28;20052;-56
2021/03/04 05:49:01;;;;;;;6.55;5.25;;;22.60;35.10;;;;;;5033403;28;20052;-58
2021/03/04 05:51:32;;;;;;;5.50;4.85;;;22.60;35.20;;;;;;5020197;28;20033;-56
2021/03/04 05:53:59;;;;;;;6.57;5.00;;;22.60;35.20;;;;;;5018376;28;20062;-57
2021/03/04 05:56:26;;;;;;;6.18;4.95;;;22.60;35.20;;;;;;5017101;28;20424;-57
2021/03/04 05:58:52;;;;;;;6.97;4.78;;;22.60;35.20;;;;;;5030247;28;20121;-54
2021/03/04 06:01:19;;;;;;;5.63;4.93;;;22.60;35.20;;;;;;5033173;28;20026;-56
2021/03/04 06:03:46;;;;;;;5.25;4.60;;;22.60;35.20;;;;;;5033540;28;20505;-53
2021/03/04 06:06:12;;;;;;;5.88;4.82;;;22.60;35.20;;;;;;5024331;28;20125;-59
2021/03/04 06:08:38;;;;;;;5.93;5.15;;;22.50;35.20;;;;;;5035485;28;20390;-54
2021/03/04 06:11:05;;;;;;;5.55;4.47;;;22.60;35.30;;;;;;5035024;28;20033;-57
2021/03/04 06:13:31;;;;;;;5.63;4.65;;;22.50;35.20;;;;;;5035580;28;20507;-58
2021/03/04 06:15:57;;;;;;;6.15;4.95;;;22.50;35.20;;;;;;5033766;28;20428;-57
2021/03/04 06:18:23;;;;;;;6.80;5.30;;;22.50;35.20;;;;;;5028404;28;20030;-58
2021/03/04 06:20:50;;;;;;;5.05;4.15;;;22.50;35.20;;;;;;5031081;28;20121;-52
2021/03/04 06:23:16;;;;;;;6.63;4.40;;;22.50;35.30;;;;;;5031935;28;20033;-57
2021/03/04 06:25:44;;;;;;;5.20;4.70;;;22.50;35.20;;;;;;5035551;28;20094;-59
2021/03/04 06:28:10;;;;;;;5.18;4.20;;;22.50;35.30;;;;;;5027923;28;20433;-58
2021/03/04 06:30:41;;;;;;;4.70;3.90;;;22.50;35.20;;;;;;5036124;28;20037;-56
2021/03/04 06:33:12;;;;;;;5.38;4.25;;;22.50;35.30;;;;;;5023890;28;20045;-56
2021/03/04 06:35:42;;;;;;;5.70;4.60;;;22.50;35.20;;;;;;5017126;28;20176;-57
2021/03/04 06:38:22;;;;;;;5.43;4.65;;;22.50;35.20;;;;;;5034991;28;20036;-55
2021/03/04 06:40:49;;;;;;;5.55;4.28;;;22.50;35.20;;;;;;5034960;28;20498;-57
2021/03/04 06:43:22;;;;;;;6.45;4.50;;;22.50;35.20;;;;;;5026854;28;20357;-58
2021/03/04 06:45:48;;;;;;;6.40;4.43;;;22.50;35.20;;;;;;5032877;28;20473;-56
2021/03/04 06:48:16;;;;;;;5.25;4.47;;;22.50;35.30;;;;;;5029336;28;20029;-56
2021/03/04 06:50:47;;;;;;;5.22;3.97;;;22.50;35.30;;;;;;5034730;28;20437;-60
2021/03/04 06:53:21;;;;;;;5.45;4.35;;;22.50;35.20;;;;;;5034409;28;20033;-60
2021/03/04 06:56:00;;;;;;;5.68;4.88;;;22.50;35.20;;;;;;5033936;28;20045;-55
2021/03/04 06:58:31;;;;;;;4.13;3.72;;;22.50;35.20;;;;;;5030573;28;20117;-55
2021/03/04 07:01:07;;;;;;;4.75;3.70;;;22.40;35.20;;;;;;5033792;28;20445;-55
2021/03/04 07:03:39;;;;;;;4.10;3.47;;;22.40;35.20;;;;;;5032055;28;20065;-54
2021/03/04 07:06:08;;;;;;;4.10;3.40;;;22.40;35.20;;;;;;5016797;28;20042;-55
2021/03/04 07:08:39;;;;;;;4.35;3.60;;;22.40;35.20;;;;;;5028649;28;20041;-56
2021/03/04 07:11:07;;;;;;;4.40;3.60;;;22.40;35.20;;;;;;5034546;28;20457;-57
2021/03/04 07:13:35;;;;;;;4.85;4.07;;;22.40;35.20;;;;;;5023603;28;20041;-55
2021/03/04 07:16:09;;;;;;;4.88;4.00;;;22.40;35.20;;;;;;5025610;28;20472;-60
2021/03/04 07:18:53;;;;;;;4.18;3.42;;;22.40;35.20;;;;;;5029185;28;20045;-59
2021/03/04 07:21:21;;;;;;;4.97;4.30;;;22.40;35.30;;;;;;5028764;28;20049;-59
2021/03/04 07:23:48;;;;;;;4.25;3.47;;;22.40;35.30;;;;;;5023361;28;20073;-58
2021/03/04 07:26:16;;;;;;;4.13;3.47;;;22.40;35.30;;;;;;5021624;28;20092;-56
2021/03/04 07:28:43;;;;;;;4.47;3.70;;;22.40;35.30;;;;;;5020128;28;20049;-59
2021/03/04 07:31:11;;;;;;;3.75;3.10;;;22.40;35.30;;;;;;5024232;28;20030;-59
2021/03/04 07:33:42;;;;;;;4.88;4.05;;;22.40;35.30;;;;;;5018569;28;20347;-59
2021/03/04 07:36:11;;;;;;;4.60;3.42;;;22.40;35.40;;;;;;5015297;28;20100;-56
2021/03/04 07:38:38;;;;;;;4.55;3.63;;;22.40;35.40;;;;;;5025586;28;20037;-56
2021/03/04 07:41:05;;;;;;;6.05;3.70;;;22.40;35.40;;;;;;5034609;28;20061;-60
2021/03/04 07:43:57;;;;;;;3.88;3.20;;;22.40;35.40;;;;;;5025028;28;20437;-59
2021/03/04 07:46:26;;;;;;;4.15;3.58;;;22.40;35.30;;;;;;5025029;28;20425;-59
2021/03/04 07:48:52;;;;;;;4.55;3.30;;;22.40;35.40;;;;;;5018631;28;20467;-59
2021/03/04 07:51:19;;;;;;;4.30;3.58;;;22.40;35.40;;;;;;5029353;28;20036;-58
2021/03/04 07:53:46;;;;;;;4.82;3.63;;;22.40;35.30;;;;;;5023944;28;20397;-57
2021/03/04 07:56:25;;;;;;;4.10;3.70;;;22.40;35.30;;;;;;5019846;28;20073;-59
2021/03/04 07:58:52;;;;;;;4.20;3.58;;;22.40;35.30;;;;;;5030010;28;20053;-58
2021/03/04 08:01:18;;;;;;;5.07;3.80;;;22.30;35.30;;;;;;5033093;28;20039;-55
2021/03/04 08:03:50;;;;;;;4.55;3.65;;;22.40;35.30;;;;;;5032731;28;20034;-59
2021/03/04 08:06:17;;;;;;;5.25;4.03;;;22.40;35.20;;;;;;5019446;28;20041;-57
2021/03/04 08:08:46;;;;;;;6.53;4.57;;;22.30;35.20;;;;;;5034572;28;20452;-60
2021/03/04 08:11:23;;;;;;;4.70;3.22;;;22.30;35.10;;;;;;5029143;28;20037;-58
2021/03/04 08:13:51;;;;;;;5.15;3.42;;;22.40;35.20;;;;;;5024885;28;20491;-59
2021/03/04 08:16:18;;;;;;;6.22;3.83;;;22.40;35.30;;;;;;5024451;28;20030;-54
2021/03/04 08:18:53;;;;;;;4.45;3.50;;;22.40;35.50;;;;;;5022678;28;20112;-60
2021/03/04 08:21:19;;;;;;;;;;;22.40;35.50;;;;;;5019610;28;20022;-59
2021/03/04 08:23:45;;;;;;;4.13;3.15;;;22.40;35.50;;;;;;5025121;28;20102;-57
2021/03/04 08:26:29;;;;;;;4.65;3.60;;;22.40;35.50;;;;;;5025379;28;20136;-57
2021/03/04 08:29:07;;;;;;;5.40;4.00;;;22.50;35.40;;;;;;5016523;28;20036;-51
2021/03/04 08:31:34;;;;;;;5.00;4.05;;;22.50;35.30;;;;;;5028562;28;20120;-59
2021/03/04 08:34:00;;;;;;;4.38;3.80;;;22.50;35.20;;;;;;5017360;28;20022;-51
2021/03/04 08:36:55;;;;;;;4.63;3.33;;;22.60;35.10;;;;;;5018886;28;20365;-58
2021/03/04 08:39:23;;;;;;;4.32;3.38;;;22.60;35.00;;;;;;5029951;28;20108;-58
2021/03/04 08:41:49;;;;;;;4.25;3.30;;;22.70;34.90;;;;;;5023876;28;20108;-56
2021/03/04 08:44:18;;;;;;;3.67;2.90;;;22.70;34.80;;;;;;5024247;28;20026;-57
2021/03/04 08:46:49;;;;;;;6.00;3.45;;;22.80;34.80;;;;;;5022801;28;20385;-56
2021/03/04 08:49:19;;;;;;;3.83;3.22;;;22.80;34.70;;;;;;5023939;28;20037;-59
2021/03/04 08:51:47;;;;;;;4.63;3.38;;;22.80;34.60;;;;;;5026021;28;20471;-55
2021/03/04 08:54:28;;;;;;;6.38;3.45;;;22.90;34.60;;;;;;5019429;28;20152;-60
2021/03/04 08:57:07;;;;;;;3.97;3.05;;;22.90;34.50;;;;;;5029487;28;20403;-55
2021/03/04 08:59:34;;;;;;;4.78;3.42;;;22.90;34.40;;;;;;5024559;28;20065;-59
2021/03/04 09:02:00;;;;;;;4.53;3.65;;;22.90;34.40;;;;;;5027689;28;20107;-55
2021/03/04 09:04:28;;;;;;;6.40;3.28;;;22.90;35.00;;;;;;5020232;28;20030;-56
2021/03/04 09:06:56;;;;;;;4.97;3.75;;;23.00;34.30;;;;;;5028239;28;20551;-57
2021/03/04 09:09:28;;;;;;;4.45;3.50;;;23.00;34.20;;;;;;5025537;28;20084;-58
2021/03/04 09:11:56;;;;;;;4.85;3.45;;;23.00;34.20;;;;;;5017088;28;20041;-56
2021/03/04 09:14:30;;;;;;;4.22;3.38;;;23.00;34.80;;;;;;5029183;28;20393;-58
2021/03/04 09:16:57;;;;;;;4.57;3.95;;;23.00;34.30;;;;;;5023743;28;20684;-54
2021/03/04 09:19:30;;;;;;;4.22;3.70;;;23.00;34.30;;;;;;5026807;28;20032;-56
2021/03/04 09:22:02;;;;;;;5.40;3.22;;;23.10;34.30;;;;;;5019043;28;20168;-59
2021/03/04 09:24:34;;;;;;;4.88;3.58;;;23.00;34.30;;;;;;5051502;28;20112;-57
2021/03/04 09:27:04;;;;;;;4.88;3.70;;;23.10;34.30;;;;;;5035847;28;20045;-57
2021/03/04 09:29:32;;;;;;;4.43;3.72;;;23.10;34.30;;;;;;5033097;28;20025;-55
2021/03/04 09:31:57;;;;;;;4.53;3.80;;;23.10;34.30;;;;;;5037134;28;20043;-58
2021/03/04 09:34:50;;;;;;;4.55;3.58;;;23.10;34.20;;;;;;5031279;28;20445;-55
2021/03/04 09:37:27;;;;;;;4.65;3.45;;;23.10;34.10;;;;;;5033419;28;20041;-58
2021/03/04 09:39:56;;;;;;;3.90;3.47;;;23.10;34.10;;;;;;5016995;28;20025;-57
2021/03/04 09:42:42;;;;;;;3.90;3.22;;;23.10;34.00;;;;;;5008513;28;20033;-54
2021/03/04 09:45:10;;;;;;;3.63;2.97;;;23.10;33.90;;;;;;5031829;28;20503;-58
2021/03/04 09:47:36;;;;;;;3.58;2.90;;;23.10;34.00;;;;;;5031164;28;20052;-58
2021/03/04 09:50:17;;;;;;;3.28;2.53;;;23.10;33.90;;;;;;5016789;28;20117;-53
2021/03/04 09:52:43;;;;;;;4.47;3.55;;;23.10;33.80;;;;;;5018644;28;20053;-55
2021/03/04 09:55:10;;;;;;;3.58;2.75;;;23.10;33.80;;;;;;5035059;28;20550;-53
2021/03/04 09:57:42;;;;;;;3.38;2.55;;;23.10;33.80;;;;;;5033824;28;20051;-52
2021/03/04 10:00:19;;;;;;;3.15;2.72;;;23.20;33.80;;;;;;5029067;28;20037;-55
2021/03/04 10:02:46;;;;;;;3.15;2.58;;;23.20;33.80;;;;;;5016789;28;20038;-58
2021/03/04 10:05:20;;;;;;;3.97;2.70;;;23.10;33.70;;;;;;5016454;28;20038;-56
2021/03/04 10:07:51;;;;;;;3.05;2.55;;;23.20;33.70;;;;;;5035874;28;20091;-58
2021/03/04 10:10:21;;;;;;;3.05;2.20;;;23.20;33.70;;;;;;5020862;28;20109;-51
2021/03/04 10:12:53;;;;;;;2.75;2.38;;;23.20;33.70;;;;;;5036223;28;20025;-53
2021/03/04 10:15:32;;;;;;;2.65;2.22;;;23.20;33.60;;;;;;5016524;28;20030;-57
2021/03/04 10:18:15;;;;;;;3.35;2.53;;;23.20;33.50;;;;;;5016703;28;20036;-53
2021/03/04 10:20:44;;;;;;;3.47;2.53;;;23.20;33.50;;;;;;5019998;28;20030;-58
2021/03/04 10:23:13;;;;;;;3.65;2.47;;;23.20;33.50;;;;;;5022020;28;20104;-56
2021/03/04 10:25:40;;;;;;;3.58;2.40;;;23.20;33.40;;;;;;5034301;28;20111;-56
2021/03/04 10:28:06;;;;;;;2.80;2.33;;;23.20;33.40;;;;;;5029084;28;20029;-52
2021/03/04 10:30:33;;;;;;;2.40;2.05;;;23.20;33.30;;;;;;5023101;28;20384;-57
2021/03/04 10:33:03;;;;;;;2.85;2.20;;;23.20;33.30;;;;;;5023572;28;20438;-56
2021/03/04 10:35:30;;;;;;;2.75;2.30;;;23.20;33.30;;;;;;5024466;28;20099;-53
2021/03/04 10:37:56;;;;;;;2.42;2.10;;;23.20;33.30;;;;;;5024243;28;20033;-55
2021/03/04 10:40:22;;;;;;;2.72;2.15;;;23.20;33.30;;;;;;5023213;28;20087;-52
2021/03/04 10:42:48;;;;;;;3.30;2.17;;;23.30;33.30;;;;;;5023019;28;20392;-57
2021/03/04 10:45:17;;;;;;;3.25;2.40;;;23.20;33.30;;;;;;5022885;28;20128;-49
2021/03/04 10:47:44;;;;;;;2.92;2.30;;;23.20;33.30;;;;;;5022865;28;20025;-49
2021/03/04 10:50:18;;;;;;;3.00;2.25;;;23.30;33.40;;;;;;5022981;28;20105;-48
2021/03/04 10:52:45;;;;;;;2.00;1.77;;;23.30;33.40;;;;;;5025516;28;20071;-47
2021/03/04 10:55:12;;;;;;;4.00;2.58;;;23.30;33.50;;;;;;5021519;28;20121;-50
2021/03/04 10:57:39;;;;;;;3.47;2.45;;;23.30;33.70;;;;;;5018179;28;20026;-48
2021/03/04 11:00:14;;;;;;;2.70;2.38;;;23.30;33.80;;;;;;5034847;28;20044;-47
2021/03/04 11:02:41;;;;;;;4.57;2.95;;;23.30;33.90;;;;;;5020693;28;20415;-47
2021/03/04 11:05:09;;;;;;;4.70;2.72;;;23.30;34.00;;;;;;5023544;28;20079;-50
2021/03/04 11:07:35;;;;;;;3.50;2.70;;;23.40;34.10;;;;;;5024768;28;20029;-47
2021/03/04 11:10:05;;;;;;;6.55;2.80;;;23.40;34.20;;;;;;5021990;28;20322;-49
2021/03/04 11:12:32;;;;;;;3.63;2.97;;;23.40;34.20;;;;;;5026863;28;20047;-51
2021/03/04 11:14:59;;;;;;;4.75;3.25;;;23.40;34.10;;;;;;5022040;28;20030;-49
2021/03/04 11:17:26;;;;;;;3.60;2.92;;;23.40;34.00;;;;;;5023551;28;20393;-54
2021/03/04 11:19:52;;;;;;;3.20;2.85;;;23.40;33.80;;;;;;5023660;28;20029;-56
2021/03/04 11:22:19;;;;;;;3.25;2.55;;;23.50;33.80;;;;;;5027361;28;20155;-60
2021/03/04 11:24:49;;;;;;;4.28;3.03;;;23.50;33.60;;;;;;5023583;28;20537;-56
2021/03/04 11:27:16;;;;;;;3.20;2.58;;;23.50;33.50;;;;;;5031316;28;20033;-56
2021/03/04 11:29:43;;;;;;;2.78;2.35;;;23.50;33.50;;;;;;5033963;28;20021;-58
2021/03/04 11:32:09;;;;;;;3.20;2.45;;;23.50;33.50;;;;;;5023881;28;20070;-59
2021/03/04 11:34:36;;;;;;;3.65;2.60;;;23.50;33.50;;;;;;5023115;28;20745;-53
2021/03/04 11:37:02;;;;;;;4.55;2.47;;;23.50;33.40;;;;;;5028462;28;20040;-56
2021/03/04 11:39:29;;;;;;;3.60;2.47;;;23.50;33.40;;;;;;5023036;28;20038;-55
2021/03/04 11:41:56;;;;;;;3.13;2.60;;;23.50;33.30;;;;;;5021541;28;20338;-57
2021/03/04 11:44:22;;;;;;;2.72;2.30;;;23.50;33.30;;;;;;5021041;28;20056;-56
2021/03/04 11:46:49;;;;;;;2.75;2.35;;;23.50;33.20;;;;;;5021487;28;20029;-50
2021/03/04 11:49:15;;;;;;;3.05;2.33;;;23.50;33.10;;;;;;5029829;28;20036;-51
2021/03/04 11:51:42;;;;;;;3.05;2.15;;;23.50;33.00;;;;;;5033903;28;20139;-52
2021/03/04 11:54:09;;;;;;;2.38;2.10;;;23.50;33.00;;;;;;5022463;28;20034;-53
2021/03/04 11:56:36;;;;;;;2.40;2.20;;;23.60;33.00;;;;;;5025966;28;20045;-48
2021/03/04 11:59:05;;;;;;;3.58;1.70;;;23.60;33.00;;;;;;5021823;28;20083;-54
2021/03/04 12:01:34;;;;;;;2.38;2.00;;;23.60;33.00;;;;;;5021334;28;20108;-54
2021/03/04 12:04:01;;;;;;;2.97;2.03;;;23.60;32.90;;;;;;5024637;28;20038;-53
2021/03/04 12:06:27;;;;;;;6.97;2.28;;;23.60;32.90;;;;;;5020735;28;20465;-50
2021/03/04 12:08:54;;;;;;;6.50;2.50;;;23.60;32.80;;;;;;5021844;28;20022;-58
2021/03/04 12:11:20;;;;;;;3.70;2.30;;;23.60;32.80;;;;;;5023169;28;20417;-51
2021/03/04 12:13:47;;;;;;;5.68;2.25;;;23.70;32.80;;;;;;5003662;28;20026;-57
2021/03/04 12:16:13;;;;;;;5.57;2.13;;;23.70;32.80;;;;;;5018503;28;20350;-52
2021/03/04 12:18:39;;;;;;;3.17;2.22;;;23.70;32.70;;;;;;5023664;28;20022;-58
2021/03/04 12:21:07;;;;;;;3.17;2.03;;;23.70;32.70;;;;;;5025226;28;20112;-57
2021/03/04 12:23:33;;;;;;;4.15;1.85;;;23.70;32.60;;;;;;5027219;28;20250;-53
2021/03/04 12:26:00;;;;;;;2.72;2.03;;;23.70;32.40;;;;;;5025610;28;20045;-55
2021/03/04 12:28:27;;;;;;;2.92;1.50;;;23.60;32.30;;;;;;5026015;28;20021;-54
2021/03/04 12:30:53;;;;;;;3.13;1.70;;;23.70;32.40;;;;;;5026895;28;20045;-55
2021/03/04 12:33:20;;;;;;;2.85;1.80;;;23.60;32.20;;;;;;5024874;28;20033;-52
2021/03/04 12:35:46;;;;;;;3.60;1.92;;;23.60;32.10;;;;;;5030263;28;20371;-51
2021/03/04 12:38:12;;;;;;;2.80;1.42;;;23.60;32.10;;;;;;5027916;28;20026;-50
2021/03/04 12:40:39;;;;;;;1.95;1.48;;;23.60;32.10;;;;;;5022658;28;20035;-50
2021/03/04 12:43:06;;;;;;;2.50;1.48;;;23.60;32.10;;;;;;5030623;28;20407;-54
2021/03/04 12:45:34;;;;;;;1.73;1.42;;;23.60;32.10;;;;;;5024479;28;20041;-52
2021/03/04 12:48:02;;;;;;;2.03;1.58;;;23.60;32.70;;;;;;5028500;28;20061;-55
2021/03/04 12:50:28;;;;;;;2.83;1.80;;;23.60;32.10;;;;;;5025759;28;20044;-53